Aérodrome :
LOGIN :

S'inscrire | Disclaimer

   EN    FR    IT 

 










Légende :    VFR   VFR Marginal   IFR   IFR Intensif   IFR Très Intensif
Visi : 
Plafond : 
>= 8 km
>= 3000ft
5 à 8 km
1000 à 3000 ft
1500m à 5 km
500 à 1000 ft
800 à 1500m
200 à 500 ft
< 800m
< 200 ft
Symboles :   Orages  Brouillard  Fortes neiges  Fortes précipitations  Vent > 20 kt
SIGMETs :   Divers  Orages  Givrage  Turbulence  Onde Orograph.  Cendres Volcan.






- Altitude de l'aérodrome : 257 ft
- Code IATA : MAN


EGCC - Manchester

DERNIER METAR :
  • 190020Z AUTO VRB03KT 9999 NCD 17/14 Q1012

METARs EXPIRÉS :
  • 182350Z AUTO VRB03KT 9999 NCD 18/14 Q1012
  • 182320Z AUTO VRB02KT 9999 NCD 18/14 Q1012
  • 182250Z AUTO VRB03KT 9999 NCD 18/14 Q1012
  • 182220Z AUTO 14004KT 080V200 9999 NCD 18/14 Q1012
  • 182150Z AUTO 13004KT 080V200 9999 NCD 18/13 Q1012

TAF AMD TAF EGCC
Valide du 19 à 00h jusqu'au 20 à 06h UTC


182344Z 1900/2006 16005KT 9999 FEW025
TEMPO 1902/1909 8000 RA BKN010
PROB30
TEMPO 1903/1908 4000 +RA BKN006
PROB30
TEMPO 1913/1919 8000 SHRA BKN014
TEMPO 2000/2006 8000
PROB30
TEMPO 2002/2006 4000 BR
ATIS : +44 161 499 2324



MET'MAP, la Météo Aéronautique d'un coup d'oeil ! - Copyright ORBIFLY Décembre 2007 - Disclaimer

ORBIFLY MET'MAP TEAM :

Programmation & Développement : Alexandra Zaïnal
Sur une idée originale de : Baudouin d'Aumeries
Assistance à la programmation : Marc-Olivier Méhu
Soutien technique & logistique : Manuel Goepfert

Contact : metmap@orbifly.com




SOURCES & CREDITS :

   NOAA